createdAt,value
2022-12-09T00:01:35.736Z,3.40
2022-12-09T00:06:56.099Z,3.87
2022-12-09T00:12:16.443Z,3.47
2022-12-09T00:17:36.896Z,3.70
2022-12-09T00:22:57.148Z,3.77
2022-12-09T00:28:17.268Z,3.40
2022-12-09T00:33:37.383Z,3.20
2022-12-09T00:38:57.858Z,4.00
2022-12-09T00:44:17.564Z,3.27
2022-12-09T00:49:37.839Z,2.90
2022-12-09T00:54:57.995Z,3.50
2022-12-09T01:00:18.329Z,2.83
2022-12-09T01:05:38.415Z,3.73
2022-12-09T01:10:58.895Z,3.33
2022-12-09T01:16:18.945Z,3.17
2022-12-09T01:21:38.944Z,3.30
2022-12-09T01:26:59.179Z,3.30
2022-12-09T01:32:19.323Z,3.10
2022-12-09T01:37:40.189Z,2.70
2022-12-09T01:43:00.715Z,3.60
2022-12-09T01:48:20.932Z,3.53
2022-12-09T01:53:40.942Z,3.20
2022-12-09T01:59:01.186Z,3.87
2022-12-09T02:04:21.320Z,2.97
2022-12-09T02:09:41.479Z,3.73
2022-12-09T02:15:01.625Z,2.90
2022-12-09T02:20:22.142Z,3.50
2022-12-09T02:25:42.082Z,3.47
2022-12-09T02:31:02.193Z,3.47
2022-12-09T02:36:22.292Z,2.73
2022-12-09T02:41:42.462Z,3.40
2022-12-09T02:47:02.557Z,2.80
2022-12-09T02:52:22.529Z,3.07
2022-12-09T02:57:42.657Z,3.70
2022-12-09T03:03:02.983Z,3.67
2022-12-09T03:08:23.076Z,3.40
2022-12-09T03:13:43.321Z,3.30
2022-12-09T03:19:03.667Z,3.27
2022-12-09T03:24:24.291Z,3.50
2022-12-09T03:29:44.518Z,3.13
2022-12-09T03:35:04.837Z,3.50
2022-12-09T03:40:25.677Z,3.63
2022-12-09T03:45:45.714Z,3.27
2022-12-09T03:51:06.306Z,3.37
2022-12-09T03:56:26.432Z,3.20
2022-12-09T04:01:46.567Z,3.30
2022-12-09T04:07:06.965Z,3.10
2022-12-09T04:12:27.040Z,3.97
2022-12-09T04:17:46.958Z,3.43
2022-12-09T04:23:07.210Z,3.13
2022-12-09T04:28:27.208Z,3.43
2022-12-09T04:33:47.316Z,3.63
2022-12-09T04:39:07.458Z,3.10
2022-12-09T04:44:27.910Z,3.73
2022-12-09T04:49:47.988Z,3.50
2022-12-09T04:55:08.342Z,3.23
2022-12-09T05:00:28.669Z,3.23
2022-12-09T05:05:48.845Z,3.67
2022-12-09T05:11:09.188Z,3.87
2022-12-09T05:16:29.620Z,3.13
2022-12-09T05:21:49.724Z,3.50
2022-12-09T05:27:09.849Z,3.37
2022-12-09T05:32:29.924Z,3.20
2022-12-09T05:37:50.189Z,3.13
2022-12-09T05:43:10.003Z,3.80
2022-12-09T05:48:30.366Z,3.60
2022-12-09T05:53:50.593Z,3.30
2022-12-09T05:59:10.902Z,3.37
2022-12-09T06:04:31.663Z,3.17
2022-12-09T06:09:51.873Z,3.37
2022-12-09T06:15:14.547Z,2.83
2022-12-09T06:20:39.295Z,2.77
2022-12-09T06:25:59.507Z,3.50
2022-12-09T06:31:19.860Z,3.53
2022-12-09T06:36:40.496Z,3.30
2022-12-09T06:42:00.720Z,3.23
2022-12-09T06:47:21.348Z,2.90
2022-12-09T06:52:41.493Z,3.17
2022-12-09T06:58:01.875Z,3.20
2022-12-09T07:03:22.537Z,3.03
2022-12-09T07:08:42.696Z,3.17
2022-12-09T07:14:02.986Z,3.37
2022-12-09T07:19:23.283Z,3.30
2022-12-09T07:24:43.935Z,3.40
2022-12-09T07:30:04.296Z,3.70
2022-12-09T07:35:24.964Z,3.40
2022-12-09T07:40:45.494Z,3.27
2022-12-09T07:46:05.864Z,3.30
2022-12-09T07:51:26.035Z,3.20
2022-12-09T07:56:46.274Z,2.83
2022-12-09T08:02:06.980Z,3.37
2022-12-09T08:07:27.713Z,3.67
2022-12-09T08:12:48.133Z,3.53
2022-12-09T08:18:08.590Z,3.23
2022-12-09T08:23:29.045Z,4.40
2022-12-09T08:28:49.531Z,3.40
2022-12-09T08:34:09.908Z,3.40
2022-12-09T08:39:30.388Z,3.67
2022-12-09T08:44:50.591Z,4.00
2022-12-09T08:50:11.516Z,3.47
2022-12-09T08:55:31.880Z,4.07
2022-12-09T09:00:52.396Z,4.10
2022-12-09T09:06:13.361Z,3.13
2022-12-09T09:11:33.747Z,3.73
2022-12-09T09:16:54.424Z,3.80
2022-12-09T09:22:14.494Z,4.10
2022-12-09T09:27:34.749Z,4.07
2022-12-09T09:32:55.144Z,3.70
2022-12-09T09:38:15.787Z,3.93
2022-12-09T09:43:35.625Z,4.40
2022-12-09T09:48:56.513Z,3.50
2022-12-09T09:54:17.400Z,4.00
2022-12-09T09:59:38.264Z,3.77
2022-12-09T10:04:58.518Z,3.60
2022-12-09T10:10:19.476Z,3.90
2022-12-09T10:15:40.903Z,3.70
2022-12-09T10:21:01.008Z,3.50
2022-12-09T10:26:21.893Z,3.77
2022-12-09T10:31:42.134Z,3.90
2022-12-09T10:37:02.401Z,3.47
2022-12-09T10:42:22.683Z,4.00
2022-12-09T10:47:42.927Z,4.10
2022-12-09T10:53:02.986Z,3.50
2022-12-09T10:58:23.134Z,4.27
2022-12-09T11:03:43.340Z,4.17
2022-12-09T11:09:04.109Z,3.23
2022-12-09T11:14:24.274Z,3.77
2022-12-09T11:19:45.277Z,4.00
2022-12-09T11:25:06.050Z,3.87
2022-12-09T11:30:27.131Z,3.43
2022-12-09T11:35:47.801Z,4.13
2022-12-09T11:41:07.824Z,4.13
2022-12-09T11:46:27.965Z,4.53
2022-12-09T11:51:48.076Z,4.00
2022-12-09T11:57:08.256Z,3.30
2022-12-09T12:02:28.460Z,3.80
2022-12-09T12:07:48.497Z,4.10
2022-12-09T12:13:08.547Z,4.03
2022-12-09T12:18:28.749Z,3.50
2022-12-09T12:23:50.345Z,4.03
2022-12-09T12:29:10.512Z,4.10
2022-12-09T12:34:35.750Z,3.67
2022-12-09T12:39:59.307Z,3.77
2022-12-09T12:45:19.430Z,3.90
2022-12-09T12:50:39.385Z,3.73
2022-12-09T12:55:59.568Z,4.93
2022-12-09T13:01:19.744Z,4.13
2022-12-09T13:06:39.839Z,4.00
2022-12-09T13:12:00.026Z,4.03
2022-12-09T13:17:20.234Z,3.67
2022-12-09T13:22:40.432Z,3.73
2022-12-09T13:28:00.614Z,3.87
2022-12-09T13:33:20.593Z,4.07
2022-12-09T13:38:40.628Z,4.00
2022-12-09T13:44:00.791Z,3.83
2022-12-09T13:49:20.945Z,4.17
2022-12-09T13:54:40.986Z,3.67
2022-12-09T14:00:01.071Z,3.70
2022-12-09T14:05:21.129Z,3.50
2022-12-09T14:10:41.245Z,3.73
2022-12-09T14:16:02.491Z,3.80
2022-12-09T14:21:22.407Z,3.70
2022-12-09T14:26:42.509Z,3.50
2022-12-09T14:32:02.672Z,3.80
2022-12-09T14:37:22.731Z,4.10
2022-12-09T14:42:42.823Z,4.30
2022-12-09T14:48:02.814Z,4.27
2022-12-09T14:53:23.036Z,3.27
2022-12-09T14:58:43.160Z,3.80
2022-12-09T15:04:03.400Z,4.17
2022-12-09T15:09:23.330Z,4.37
2022-12-09T15:14:43.563Z,3.80
2022-12-09T15:20:03.665Z,4.30
2022-12-09T15:25:23.881Z,4.10
2022-12-09T15:30:43.890Z,3.63
2022-12-09T15:36:04.347Z,4.60
2022-12-09T15:41:24.381Z,4.00
2022-12-09T15:46:44.632Z,4.17
2022-12-09T15:52:04.697Z,4.60
2022-12-09T15:57:24.834Z,4.10
2022-12-09T16:02:44.927Z,4.47
2022-12-09T16:08:05.006Z,4.43
2022-12-09T16:13:25.028Z,4.80
2022-12-09T16:18:45.358Z,3.60
2022-12-09T16:24:05.512Z,4.07
2022-12-09T16:29:25.596Z,4.37
2022-12-09T16:34:45.696Z,4.30
2022-12-09T16:40:05.902Z,4.23
2022-12-09T16:45:26.099Z,4.20
2022-12-09T16:50:46.220Z,4.47
2022-12-09T16:56:06.308Z,4.33
2022-12-09T17:01:26.545Z,4.60
2022-12-09T17:06:46.579Z,3.97
2022-12-09T17:12:06.752Z,4.10
2022-12-09T17:17:26.869Z,4.50
2022-12-09T17:22:46.995Z,4.77
2022-12-09T17:28:07.125Z,4.63
2022-12-09T17:33:27.307Z,4.23
2022-12-09T17:38:47.543Z,4.33
2022-12-09T17:44:07.741Z,5.43
2022-12-09T17:49:27.752Z,4.90
2022-12-09T17:54:47.948Z,5.10
2022-12-09T18:00:08.578Z,5.20
2022-12-09T18:05:28.780Z,4.60
2022-12-09T18:10:49.110Z,5.73
2022-12-09T18:16:09.216Z,6.10
2022-12-09T18:21:29.332Z,5.83
2022-12-09T18:26:49.435Z,5.60
2022-12-09T18:32:09.554Z,5.87
2022-12-09T18:37:29.541Z,7.00
2022-12-09T18:42:50.462Z,6.40
2022-12-09T18:48:10.642Z,6.40
2022-12-09T18:53:30.846Z,6.50
2022-12-09T18:59:05.826Z,6.37
2022-12-09T19:04:26.604Z,6.80
2022-12-09T19:09:46.807Z,6.80
2022-12-09T19:15:07.003Z,6.80
2022-12-09T19:20:27.221Z,7.60
2022-12-09T19:25:47.555Z,6.93
2022-12-09T19:31:07.638Z,7.00
2022-12-09T19:36:27.884Z,6.10
2022-12-09T19:41:48.070Z,7.03
2022-12-09T19:47:08.288Z,7.57
2022-12-09T19:52:28.446Z,7.67
2022-12-09T19:57:48.634Z,7.13
2022-12-09T20:03:08.784Z,7.17
2022-12-09T20:08:28.941Z,7.13
2022-12-09T20:13:49.133Z,7.00
2022-12-09T20:19:09.284Z,7.03
2022-12-09T20:24:29.274Z,7.17
2022-12-09T20:29:49.330Z,7.53
2022-12-09T20:35:09.541Z,6.77
2022-12-09T20:40:29.890Z,7.00
2022-12-09T20:45:49.944Z,6.63
2022-12-09T20:51:10.234Z,7.23
2022-12-09T20:56:30.365Z,6.60
2022-12-09T21:01:50.490Z,6.67
2022-12-09T21:07:10.583Z,6.60
2022-12-09T21:12:30.761Z,6.60
2022-12-09T21:17:50.905Z,7.30
2022-12-09T21:23:33.279Z,7.30
2022-12-09T21:28:50.883Z,6.70
2022-12-09T21:34:10.917Z,6.67
2022-12-09T21:39:31.069Z,7.00
2022-12-09T21:44:51.043Z,7.50
2022-12-09T21:50:11.190Z,7.80
2022-12-09T21:55:31.396Z,7.10
2022-12-09T22:00:51.672Z,6.90
2022-12-09T22:06:11.689Z,6.77
2022-12-09T22:11:31.771Z,6.87
2022-12-09T22:16:52.041Z,6.60
2022-12-09T22:22:12.085Z,6.50
2022-12-09T22:27:32.318Z,8.07
2022-12-09T22:32:52.418Z,6.97
2022-12-09T22:38:14.744Z,7.37
2022-12-09T22:43:38.001Z,7.07
2022-12-09T22:48:58.450Z,7.73
2022-12-09T22:54:18.756Z,7.60
2022-12-09T22:59:42.917Z,7.10
2022-12-09T23:05:03.076Z,7.93
2022-12-09T23:10:23.118Z,6.50
2022-12-09T23:15:43.352Z,8.00
2022-12-09T23:21:03.453Z,7.63
2022-12-09T23:26:23.622Z,8.20
2022-12-09T23:31:43.785Z,8.27
2022-12-09T23:37:04.095Z,7.30
2022-12-09T23:42:24.262Z,7.90
2022-12-09T23:47:44.400Z,7.87
2022-12-09T23:53:04.440Z,7.87
2022-12-09T23:58:24.621Z,8.60
